Barfleur — FNIE — position and weather

sailwx.info

Track history (hours):
 
Tides and Currents Weather Stations Pressure Air Temp Water Temp Dewpoint Dewpoint Depression Visibility Wind Speed Wind Dir Waves Ship Positions

Barfleur

Operator: Brittany Ferries

Last reported at 2014-Nov-27 23:06 UTC. Time now 2014-Nov-28 01:25 UTC.
Position N 50°42' W 001°59'.

Length 158 m; draft 5 m.

Type: Passenger vessel. MMSI: 227289000.

Date/timePositionNaut miles runAvg speedWind from/ knotsBaromVisibWave heightAir tempDewpointWater temp
2014-Nov-27 23:06N 50°42' W 001°59'0 0.0
2014-Nov-27 22:33N 50°42' W 001°59'0 0.0
2014-Nov-27 21:33N 50°42' W 001°59'1111.1
2014-Nov-27 20:33N 50°33' W 001°51'2 0.2
2014-Nov-27 09:14N 50°34' W 001°53'812.3
2014-Nov-27 08:33N 50°42' W 001°58'1 0.1
2014-Nov-26 22:13N 50°42' W 001°59'0 0.7
2014-Nov-26 21:33N 50°42' W 001°59'1514.6
2014-Nov-26 20:33N 50°29' W 001°51'5 0.4
2014-Nov-26 09:11N 50°33' W 001°53'913.8
2014-Nov-26 08:33N 50°41' W 001°57'2 0.2
2014-Nov-25 23:08N 50°42' W 001°59'0 0.0
2014-Nov-25 22:32N 50°42' W 001°59'0 0.1
2014-Nov-25 21:33N 50°42' W 001°59'1313.5
2014-Nov-25 20:33N 50°30' W 001°51'1 0.1
2014-Nov-25 09:26N 50°31' W 001°52'1213.6
2014-Nov-25 08:32N 50°42' W 001°59'0 0.0
2014-Nov-24 22:29N 50°42' W 001°59'0 0.1
2014-Nov-24 21:31N 50°42' W 001°59'2114.9
2014-Nov-24 20:07N 50°22' W 001°51'6 0.6
2014-Nov-24 09:31N 50°28' W 001°51'1414.4
2014-Nov-24 08:34N 50°42' W 001°57'2 0.2
2014-Nov-23 22:07N 50°42' W 001°59'1 2.0
2014-Nov-23 21:34N 50°42' W 001°58'1615.6
2014-Nov-23 20:33N 50°27' W 001°51'1 0.1
2014-Nov-23 09:32N 50°27' W 001°52'1414.9
2014-Nov-23 08:33N 50°41' W 001°57'2 0.2
2014-Nov-22 22:32N 50°42' W 001°59'0 0.1
2014-Nov-22 21:33N 50°42' W 001°60'1312.8
2014-Nov-22 20:33N 50°31' W 001°52'1 0.1
2014-Nov-22 09:24N 50°30' W 001°52'1315.3
2014-Nov-22 08:33N 50°42' W 001°57'1 0.2
2014-Nov-21 23:05N 50°42' W 001°59'1 1.0
2014-Nov-21 22:33N 50°42' W 001°59'1514.8
2014-Nov-21 21:33N 50°28' W 001°51'5 0.4
2014-Nov-21 09:12N 50°34' W 001°53'1013.3
2014-Nov-21 08:29N 50°42' W 001°59'0 0.0
2014-Nov-20 21:32N 50°42' W 001°59'1312.8
2014-Nov-20 20:33N 50°31' W 001°52'3 0.3
2014-Nov-20 09:10N 50°34' W 001°54'813.8
2014-Nov-20 08:33N 50°42' W 001°58'1 0.1
2014-Nov-19 21:33N 50°42' W 001°59'1211.8
2014-Nov-19 20:34N 50°32' W 001°52'2 0.2
2014-Nov-19 09:11N 50°34' W 001°53'913.9
2014-Nov-19 08:33N 50°42' W 001°58'1 0.1
2014-Nov-18 21:33N 50°42' W 001°59'1111.0
2014-Nov-18 20:34N 50°33' W 001°51'2 0.2
2014-Nov-18 09:22N 50°34' W 001°54'  
Track history (hours):
 
Tides and Currents Weather Stations Pressure Air Temp Water Temp Dewpoint Dewpoint Depression Visibility Wind Speed Wind Dir Waves Ship Positions

Barfleur

Operator: Brittany Ferries

Last reported at 2014-Nov-27 23:06 UTC. Time now 2014-Nov-28 01:25 UTC.
Position N 50°42' W 001°59'.

Length 158 m; draft 5 m.

Type: Passenger vessel. MMSI: 227289000.

Date/timePositionNaut miles runAvg speedWind from/ knotsBaromVisibWave heightAir tempDewpointWater temp
2014-Nov-27 23:06N 50°42' W 001°59'0 0.0
2014-Nov-27 22:33N 50°42' W 001°59'0 0.0
2014-Nov-27 21:33N 50°42' W 001°59'1111.1
2014-Nov-27 20:33N 50°33' W 001°51'2 0.2
2014-Nov-27 09:14N 50°34' W 001°53'812.3
2014-Nov-27 08:33N 50°42' W 001°58'1 0.1
2014-Nov-26 22:13N 50°42' W 001°59'0 0.7
2014-Nov-26 21:33N 50°42' W 001°59'1514.6
2014-Nov-26 20:33N 50°29' W 001°51'5 0.4
2014-Nov-26 09:11N 50°33' W 001°53'913.8
2014-Nov-26 08:33N 50°41' W 001°57'2 0.2
2014-Nov-25 23:08N 50°42' W 001°59'0 0.0
2014-Nov-25 22:32N 50°42' W 001°59'0 0.1
2014-Nov-25 21:33N 50°42' W 001°59'1313.5
2014-Nov-25 20:33N 50°30' W 001°51'1 0.1
2014-Nov-25 09:26N 50°31' W 001°52'1213.6
2014-Nov-25 08:32N 50°42' W 001°59'0 0.0
2014-Nov-24 22:29N 50°42' W 001°59'0 0.1
2014-Nov-24 21:31N 50°42' W 001°59'2114.9
2014-Nov-24 20:07N 50°22' W 001°51'6 0.6
2014-Nov-24 09:31N 50°28' W 001°51'1414.4
2014-Nov-24 08:34N 50°42' W 001°57'2 0.2
2014-Nov-23 22:07N 50°42' W 001°59'1 2.0
2014-Nov-23 21:34N 50°42' W 001°58'1615.6
2014-Nov-23 20:33N 50°27' W 001°51'1 0.1
2014-Nov-23 09:32N 50°27' W 001°52'1414.9
2014-Nov-23 08:33N 50°41' W 001°57'2 0.2
2014-Nov-22 22:32N 50°42' W 001°59'0 0.1
2014-Nov-22 21:33N 50°42' W 001°60'1312.8
2014-Nov-22 20:33N 50°31' W 001°52'1 0.1
2014-Nov-22 09:24N 50°30' W 001°52'1315.3
2014-Nov-22 08:33N 50°42' W 001°57'1 0.2
2014-Nov-21 23:05N 50°42' W 001°59'1 1.0
2014-Nov-21 22:33N 50°42' W 001°59'1514.8
2014-Nov-21 21:33N 50°28' W 001°51'5 0.4
2014-Nov-21 09:12N 50°34' W 001°53'1013.3
2014-Nov-21 08:29N 50°42' W 001°59'0 0.0
2014-Nov-20 21:32N 50°42' W 001°59'1312.8
2014-Nov-20 20:33N 50°31' W 001°52'3 0.3
2014-Nov-20 09:10N 50°34' W 001°54'813.8
2014-Nov-20 08:33N 50°42' W 001°58'1 0.1
2014-Nov-19 21:33N 50°42' W 001°59'1211.8
2014-Nov-19 20:34N 50°32' W 001°52'2 0.2
2014-Nov-19 09:11N 50°34' W 001°53'913.9
2014-Nov-19 08:33N 50°42' W 001°58'1 0.1
2014-Nov-18 21:33N 50°42' W 001°59'1111.0
2014-Nov-18 20:34N 50°33' W 001°51'2 0.2
2014-Nov-18 09:22N 50°34' W 001°54'  

Dump ship's entire track history